createdAt,value
2022-08-07T00:01:01.406Z,42.79
2022-08-07T00:06:29.588Z,43.25
2022-08-07T00:11:35.335Z,42.74
2022-08-07T00:16:49.560Z,42.76
2022-08-07T00:21:56.195Z,43.48
2022-08-07T00:27:07.425Z,44.00
2022-08-07T00:32:13.524Z,43.80
2022-08-07T00:37:16.299Z,43.40
2022-08-07T00:42:17.813Z,44.06
2022-08-07T00:48:09.181Z,44.24
2022-08-07T00:52:41.183Z,45.27
2022-08-07T00:57:55.096Z,44.15
2022-08-07T01:02:57.515Z,44.09
2022-08-07T01:07:59.582Z,43.72
2022-08-07T01:13:01.207Z,44.50
2022-08-07T01:18:04.611Z,45.09
2022-08-07T01:23:12.732Z,45.21
2022-08-07T01:28:14.638Z,44.71
2022-08-07T01:33:16.666Z,44.63
2022-08-07T01:38:25.022Z,44.35
2022-08-07T01:43:34.673Z,44.79
2022-08-07T01:48:46.444Z,43.48
2022-08-07T01:54:12.761Z,43.95
2022-08-07T01:59:52.350Z,43.69
2022-08-07T02:05:04.691Z,43.48
2022-08-07T02:10:06.716Z,43.04
2022-08-07T02:15:09.091Z,43.29
2022-08-07T02:20:19.702Z,43.84
2022-08-07T02:25:21.494Z,42.63
2022-08-07T02:30:42.996Z,42.99
2022-08-07T02:36:28.182Z,42.17
2022-08-07T02:41:06.371Z,43.80
2022-08-07T02:46:09.647Z,44.52
2022-08-07T02:51:29.105Z,45.75
2022-08-07T02:56:34.708Z,45.67
2022-08-07T03:01:40.216Z,45.95
2022-08-07T03:06:45.936Z,46.31
2022-08-07T03:11:51.640Z,46.64
2022-08-07T03:16:53.614Z,46.95
2022-08-07T03:21:55.158Z,47.14
2022-08-07T03:27:00.525Z,47.80
2022-08-07T03:32:03.500Z,47.22
2022-08-07T03:37:12.387Z,47.22
2022-08-07T03:42:14.673Z,47.39
2022-08-07T03:47:16.224Z,47.42
2022-08-07T03:52:26.134Z,46.26
2022-08-07T03:58:33.614Z,46.25
2022-08-07T04:02:50.966Z,46.14
2022-08-07T04:07:58.323Z,45.45
2022-08-07T04:13:01.963Z,45.87
2022-08-07T04:18:56.262Z,46.17
2022-08-07T04:23:25.748Z,45.91
2022-08-07T04:28:45.587Z,45.55
2022-08-07T04:33:47.564Z,45.68
2022-08-07T04:38:56.718Z,45.44
2022-08-07T04:44:12.543Z,45.56
2022-08-07T04:49:27.357Z,45.24
2022-08-07T04:54:36.852Z,45.10
2022-08-07T05:00:11.170Z,46.16
2022-08-07T05:05:53.436Z,45.81
2022-08-07T05:10:44.066Z,46.30
2022-08-07T05:15:49.897Z,46.36
2022-08-07T05:20:54.860Z,45.94
2022-08-07T05:26:12.949Z,45.54
2022-08-07T05:31:20.201Z,47.03
2022-08-07T05:36:22.358Z,45.60
2022-08-07T05:41:24.415Z,45.67
2022-08-07T05:46:47.698Z,45.00
2022-08-07T05:51:53.435Z,44.88
2022-08-07T05:56:55.463Z,44.60
2022-08-07T06:01:58.199Z,44.11
2022-08-07T06:07:05.779Z,43.89
2022-08-07T06:12:07.709Z,43.70
2022-08-07T06:17:10.115Z,43.29
2022-08-07T06:22:24.010Z,42.19
2022-08-07T06:27:59.718Z,42.59
2022-08-07T06:32:50.241Z,41.59
2022-08-07T06:37:52.944Z,41.01
2022-08-07T06:42:55.881Z,40.97
2022-08-07T06:47:59.134Z,40.71
2022-08-07T06:53:01.148Z,40.85
2022-08-07T06:58:09.432Z,40.97
2022-08-07T07:03:14.396Z,41.30
2022-08-07T07:08:25.612Z,40.37
2022-08-07T07:13:55.325Z,40.14
2022-08-07T07:19:40.960Z,39.84
2022-08-07T07:24:26.110Z,40.24
2022-08-07T07:29:56.107Z,40.20
2022-08-07T07:34:52.490Z,39.70
2022-08-07T07:39:55.725Z,39.37
2022-08-07T07:44:57.316Z,39.15
2022-08-07T07:50:34.755Z,39.31
2022-08-07T07:55:20.403Z,38.53
2022-08-07T08:00:29.507Z,38.15
2022-08-07T08:05:51.049Z,39.74
2022-08-07T08:10:57.006Z,39.91
2022-08-07T08:16:00.710Z,41.66
2022-08-07T08:21:02.526Z,39.11
2022-08-07T08:26:25.120Z,37.79
2022-08-07T08:31:58.416Z,38.35
2022-08-07T08:36:56.215Z,37.69
2022-08-07T08:42:03.532Z,36.81
2022-08-07T08:47:26.842Z,36.87
2022-08-07T08:52:36.039Z,36.63
2022-08-07T08:57:50.484Z,36.58
2022-08-07T09:02:58.654Z,37.23
2022-08-07T09:08:28.596Z,36.30
2022-08-07T09:13:47.004Z,35.87
2022-08-07T09:19:03.369Z,35.89
2022-08-07T09:24:55.997Z,35.91
2022-08-07T09:30:03.989Z,35.88
2022-08-07T09:36:04.588Z,38.87
2022-08-07T09:41:27.906Z,36.54
2022-08-07T09:47:50.786Z,38.50
2022-08-07T09:52:51.684Z,36.13
2022-08-07T09:57:56.240Z,35.97
2022-08-07T10:04:05.461Z,35.25
2022-08-07T10:08:59.439Z,35.49
2022-08-07T10:14:39.686Z,35.50
2022-08-07T10:20:12.961Z,36.15
2022-08-07T10:25:45.490Z,35.90
2022-08-07T10:31:21.250Z,34.71
2022-08-07T10:36:36.283Z,35.48
2022-08-07T10:41:46.508Z,35.75
2022-08-07T10:47:14.264Z,34.87
2022-08-07T10:52:21.759Z,34.89
2022-08-07T10:58:02.385Z,35.29
2022-08-07T11:03:12.623Z,34.99
2022-08-07T11:08:30.456Z,35.46
2022-08-07T11:14:46.081Z,36.81
2022-08-07T11:19:42.376Z,35.74
2022-08-07T11:24:47.326Z,35.04
2022-08-07T11:30:18.752Z,34.17
2022-08-07T11:35:31.233Z,33.70
2022-08-07T11:41:07.803Z,35.60
2022-08-07T11:46:21.394Z,33.75
2022-08-07T11:51:50.459Z,33.26
2022-08-07T11:57:12.833Z,33.95
2022-08-07T12:02:31.000Z,33.05
2022-08-07T12:07:38.682Z,32.82
2022-08-07T12:12:43.906Z,33.44
2022-08-07T12:18:08.242Z,32.98
2022-08-07T12:24:05.537Z,33.46
2022-08-07T12:29:11.714Z,33.87
2022-08-07T12:34:13.307Z,32.75
2022-08-07T12:39:42.567Z,33.00
2022-08-07T12:44:36.919Z,33.31
2022-08-07T12:50:04.447Z,32.58
2022-08-07T12:55:40.579Z,33.75
2022-08-07T13:00:53.551Z,32.10
2022-08-07T13:06:29.431Z,35.08
2022-08-07T13:12:03.552Z,35.17
2022-08-07T13:17:11.999Z,35.84
2022-08-07T13:22:19.771Z,33.79
2022-08-07T13:28:12.481Z,33.44
2022-08-07T13:34:33.647Z,33.11
2022-08-07T13:38:48.794Z,31.90
2022-08-07T13:43:52.769Z,32.80
2022-08-07T13:48:58.547Z,32.24
2022-08-07T13:54:09.530Z,34.43
2022-08-07T13:59:21.949Z,33.76
2022-08-07T14:04:29.806Z,33.99
2022-08-07T14:10:00.918Z,34.29
2022-08-07T14:15:04.987Z,33.28
2022-08-07T14:20:43.085Z,33.25
2022-08-07T14:25:39.519Z,33.12
2022-08-07T14:30:47.835Z,32.48
2022-08-07T14:35:57.328Z,33.94
2022-08-07T14:41:12.433Z,33.15
2022-08-07T14:46:17.601Z,34.40
2022-08-07T14:51:21.195Z,34.03
2022-08-07T14:56:30.327Z,35.26
2022-08-07T15:01:42.330Z,35.12
2022-08-07T15:06:47.629Z,34.77
2022-08-07T15:12:01.298Z,37.76
2022-08-07T15:17:04.722Z,36.94
2022-08-07T15:22:23.134Z,35.95
2022-08-07T15:27:34.150Z,35.75
2022-08-07T15:38:17.236Z,36.38
2022-08-07T15:43:53.850Z,36.78
2022-08-07T15:49:11.894Z,36.99
2022-08-07T15:54:11.922Z,36.38
2022-08-07T15:59:19.982Z,37.07
2022-08-07T16:04:42.167Z,36.14
2022-08-07T16:09:53.924Z,38.05
2022-08-07T16:21:53.490Z,37.37
2022-08-07T16:26:30.728Z,37.24
2022-08-07T16:31:51.565Z,37.64
2022-08-07T16:38:05.832Z,39.29
2022-08-07T16:42:55.898Z,39.44
2022-08-07T16:48:58.238Z,38.30
2022-08-07T16:54:06.708Z,37.76
2022-08-07T16:59:19.832Z,38.67
2022-08-07T17:04:24.474Z,38.35
2022-08-07T17:10:07.091Z,39.06
2022-08-07T17:15:15.635Z,39.45
2022-08-07T17:20:31.871Z,39.57
2022-08-07T17:25:47.440Z,39.71
2022-08-07T17:31:00.741Z,40.08
2022-08-07T17:36:26.086Z,41.23
2022-08-07T17:42:02.086Z,41.52
2022-08-07T17:47:17.147Z,41.42
2022-08-07T17:52:36.139Z,41.95
2022-08-07T17:57:56.544Z,44.25
2022-08-07T18:03:18.302Z,44.48
2022-08-07T18:08:26.079Z,45.04
2022-08-07T18:13:48.713Z,45.18
2022-08-07T18:21:11.869Z,44.73
2022-08-07T18:24:33.027Z,44.92
2022-08-07T18:30:07.453Z,44.74
2022-08-07T18:35:17.364Z,44.61
2022-08-07T18:40:42.748Z,43.99
2022-08-07T18:46:24.870Z,43.36
2022-08-07T18:52:35.608Z,44.15
2022-08-07T18:57:30.682Z,44.23
2022-08-07T19:02:45.492Z,44.90
2022-08-07T19:07:59.117Z,44.71
2022-08-07T19:13:49.927Z,44.98
2022-08-07T19:18:58.318Z,44.61
2022-08-07T19:24:02.310Z,44.50
2022-08-07T19:30:56.463Z,44.90
2022-08-07T19:34:33.874Z,45.38
2022-08-07T19:39:55.997Z,46.02
2022-08-07T19:45:08.566Z,45.88
2022-08-07T19:50:42.964Z,46.63
2022-08-07T19:55:56.323Z,47.22
2022-08-07T20:00:56.096Z,46.52
2022-08-07T20:06:02.104Z,47.51
2022-08-07T20:11:09.967Z,47.26
2022-08-07T20:16:32.014Z,46.35
2022-08-07T20:21:42.316Z,46.35
2022-08-07T20:26:52.295Z,46.39
2022-08-07T20:31:56.589Z,45.79
2022-08-07T20:37:00.223Z,45.83
2022-08-07T20:42:07.055Z,45.82
2022-08-07T20:47:12.517Z,45.74
2022-08-07T20:52:21.167Z,46.20
2022-08-07T20:57:47.342Z,46.58
2022-08-07T21:03:01.764Z,45.74
2022-08-07T21:08:08.366Z,45.87
2022-08-07T21:13:16.719Z,46.43
2022-08-07T21:18:27.790Z,46.09
2022-08-07T21:23:50.531Z,45.98
2022-08-07T21:28:55.382Z,45.96
2022-08-07T21:34:12.356Z,46.08
2022-08-07T21:39:46.031Z,45.68
2022-08-07T21:44:44.776Z,46.14
2022-08-07T21:50:02.053Z,45.92
2022-08-07T21:55:30.231Z,46.30
2022-08-07T22:00:32.435Z,46.25
2022-08-07T22:05:45.138Z,46.08
2022-08-07T22:10:57.967Z,46.45
2022-08-07T22:16:39.489Z,46.71
2022-08-07T22:22:01.935Z,46.03
2022-08-07T22:27:10.275Z,45.96
2022-08-07T22:32:27.010Z,46.11
2022-08-07T22:38:02.005Z,46.35
2022-08-07T22:43:17.968Z,46.36
2022-08-07T22:48:55.966Z,46.92
2022-08-07T22:54:22.358Z,46.19
2022-08-07T22:59:46.840Z,45.73
2022-08-07T23:06:09.841Z,45.66
2022-08-07T23:10:42.029Z,46.31
2022-08-07T23:16:44.377Z,45.78
2022-08-07T23:21:30.231Z,46.14
2022-08-07T23:27:02.828Z,46.17
2022-08-07T23:34:23.333Z,46.17
2022-08-07T23:38:10.865Z,45.70
2022-08-07T23:43:40.902Z,45.76
2022-08-07T23:49:07.101Z,45.91
2022-08-07T23:54:54.371Z,46.09
